sensor_id;sensor_type;location;lat;lon;timestamp;P1;durP1;ratioP1;P2;durP2;ratioP2
64459;SDS011;50828;53.756;21.140;2022-12-07T09:06:03;9.70;;;4.00;;
64459;SDS011;50828;53.756;21.140;2022-12-07T09:11:12;10.70;;;4.60;;
64459;SDS011;50828;53.756;21.140;2022-12-07T09:16:19;12.40;;;4.50;;
64459;SDS011;50828;53.756;21.140;2022-12-07T09:21:27;8.50;;;4.30;;
64459;SDS011;50828;53.756;21.140;2022-12-07T09:26:35;9.00;;;4.50;;
64459;SDS011;50828;53.756;21.140;2022-12-07T09:31:44;8.30;;;4.30;;
64459;SDS011;50828;53.756;21.140;2022-12-07T09:36:52;10.40;;;4.00;;
64459;SDS011;50828;53.756;21.140;2022-12-07T09:42:02;7.80;;;3.70;;
64459;SDS011;50828;53.756;21.140;2022-12-07T09:47:11;11.40;;;4.00;;
64459;SDS011;50828;53.756;21.140;2022-12-07T09:52:20;7.20;;;3.30;;
64459;SDS011;50828;53.756;21.140;2022-12-07T09:57:40;6.60;;;3.40;;
64459;SDS011;50828;53.756;21.140;2022-12-07T10:02:49;6.40;;;2.30;;
64459;SDS011;50828;53.756;21.140;2022-12-07T10:08:00;5.10;;;2.80;;
64459;SDS011;50828;53.756;21.140;2022-12-07T10:13:09;5.10;;;2.90;;
64459;SDS011;50828;53.756;21.140;2022-12-07T10:18:20;6.20;;;2.50;;
64459;SDS011;50828;53.756;21.140;2022-12-07T10:28:48;6.10;;;2.50;;
64459;SDS011;50828;53.756;21.140;2022-12-07T10:33:57;4.60;;;2.70;;
64459;SDS011;50828;53.756;21.140;2022-12-07T10:39:11;5.10;;;2.80;;
64459;SDS011;50828;53.756;21.140;2022-12-07T10:44:22;5.60;;;2.60;;
64459;SDS011;50828;53.756;21.140;2022-12-07T10:55:18;9.80;;;3.40;;
64459;SDS011;50828;53.756;21.140;2022-12-07T11:00:34;8.40;;;3.90;;
64459;SDS011;50828;53.756;21.140;2022-12-07T11:05:51;7.60;;;3.40;;
64459;SDS011;50828;53.756;21.140;2022-12-07T11:11:06;8.10;;;4.60;;
64459;SDS011;50828;53.756;21.140;2022-12-07T11:16:23;8.80;;;4.70;;
64459;SDS011;50828;53.756;21.140;2022-12-07T11:21:40;7.40;;;4.40;;
64459;SDS011;50828;53.756;21.140;2022-12-07T11:27:04;9.00;;;4.90;;
64459;SDS011;50828;53.756;21.140;2022-12-07T11:32:20;10.30;;;5.60;;
64459;SDS011;50828;53.756;21.140;2022-12-07T11:37:40;10.10;;;6.00;;
64459;SDS011;50828;53.756;21.140;2022-12-07T11:42:50;12.20;;;6.20;;
64459;SDS011;50828;53.756;21.140;2022-12-07T11:48:06;11.70;;;5.10;;
64459;SDS011;50828;53.756;21.140;2022-12-07T11:53:20;9.00;;;5.00;;
64459;SDS011;50828;53.756;21.140;2022-12-07T11:58:38;10.70;;;5.50;;
64459;SDS011;50828;53.756;21.140;2022-12-07T12:04:01;10.60;;;5.50;;
64459;SDS011;50828;53.756;21.140;2022-12-07T12:09:13;11.90;;;6.20;;
64459;SDS011;50828;53.756;21.140;2022-12-07T12:14:48;9.60;;;5.20;;
64459;SDS011;50828;53.756;21.140;2022-12-07T12:20:14;8.80;;;4.70;;
64459;SDS011;50828;53.756;21.140;2022-12-07T12:25:29;8.70;;;5.10;;
64459;SDS011;50828;53.756;21.140;2022-12-07T12:30:44;9.10;;;5.20;;
64459;SDS011;50828;53.756;21.140;2022-12-07T12:36:20;9.50;;;5.50;;
64459;SDS011;50828;53.756;21.140;2022-12-07T12:41:55;9.80;;;5.30;;
64459;SDS011;50828;53.756;21.140;2022-12-07T12:53:04;9.40;;;5.50;;
64459;SDS011;50828;53.756;21.140;2022-12-07T12:58:33;8.40;;;5.60;;
64459;SDS011;50828;53.756;21.140;2022-12-07T13:03:53;9.20;;;5.10;;
64459;SDS011;50828;53.756;21.140;2022-12-07T13:09:02;10.90;;;5.40;;
64459;SDS011;50828;53.756;21.140;2022-12-07T13:19:58;9.90;;;5.70;;
64459;SDS011;50828;53.756;21.140;2022-12-07T13:25:07;10.00;;;5.60;;
64459;SDS011;50828;53.756;21.140;2022-12-07T13:30:18;9.20;;;5.70;;
64459;SDS011;50828;53.756;21.140;2022-12-07T13:35:32;10.70;;;6.20;;
64459;SDS011;50828;53.756;21.140;2022-12-07T13:40:41;10.00;;;6.20;;
64459;SDS011;50828;53.756;21.140;2022-12-07T13:46:06;10.50;;;6.10;;
64459;SDS011;50828;53.756;21.140;2022-12-07T13:51:23;12.70;;;7.00;;
64459;SDS011;50828;53.756;21.140;2022-12-07T13:56:33;11.20;;;6.70;;
64459;SDS011;50828;53.756;21.140;2022-12-07T14:01:43;11.90;;;7.10;;
64459;SDS011;50828;53.756;21.140;2022-12-07T14:06:53;14.30;;;7.40;;
64459;SDS011;50828;53.756;21.140;2022-12-07T14:12:05;14.40;;;8.10;;
64459;SDS011;50828;53.756;21.140;2022-12-07T14:17:15;13.30;;;7.90;;
64459;SDS011;50828;53.756;21.140;2022-12-07T14:22:28;16.40;;;8.70;;
64459;SDS011;50828;53.756;21.140;2022-12-07T14:27:39;20.00;;;10.40;;
64459;SDS011;50828;53.756;21.140;2022-12-07T14:32:54;16.40;;;8.40;;
64459;SDS011;50828;53.756;21.140;2022-12-07T14:38:05;19.50;;;10.40;;
64459;SDS011;50828;53.756;21.140;2022-12-07T14:43:15;21.50;;;10.30;;
64459;SDS011;50828;53.756;21.140;2022-12-07T14:48:23;20.60;;;10.70;;
64459;SDS011;50828;53.756;21.140;2022-12-07T14:53:52;22.20;;;10.30;;
64459;SDS011;50828;53.756;21.140;2022-12-07T14:59:01;23.90;;;11.30;;
64459;SDS011;50828;53.756;21.140;2022-12-07T15:04:08;25.20;;;12.70;;
64459;SDS011;50828;53.756;21.140;2022-12-07T15:09:17;25.40;;;11.30;;
64459;SDS011;50828;53.756;21.140;2022-12-07T15:14:25;23.40;;;12.10;;
64459;SDS011;50828;53.756;21.140;2022-12-07T15:19:32;23.00;;;11.10;;
64459;SDS011;50828;53.756;21.140;2022-12-07T15:24:40;31.70;;;12.00;;
64459;SDS011;50828;53.756;21.140;2022-12-07T15:29:49;23.50;;;10.50;;
64459;SDS011;50828;53.756;21.140;2022-12-07T15:34:58;21.70;;;11.00;;
64459;SDS011;50828;53.756;21.140;2022-12-07T15:40:08;28.70;;;12.50;;
64459;SDS011;50828;53.756;21.140;2022-12-07T15:45:17;26.00;;;11.80;;
64459;SDS011;50828;53.756;21.140;2022-12-07T15:50:25;30.80;;;11.80;;
64459;SDS011;50828;53.756;21.140;2022-12-07T15:55:33;27.30;;;12.20;;
64459;SDS011;50828;53.756;21.140;2022-12-07T16:00:44;27.80;;;11.80;;
64459;SDS011;50828;53.756;21.140;2022-12-07T16:05:52;28.40;;;12.20;;
64459;SDS011;50828;53.756;21.140;2022-12-07T16:11:03;24.90;;;11.00;;
64459;SDS011;50828;53.756;21.140;2022-12-07T16:16:13;25.90;;;12.90;;
64459;SDS011;50828;53.756;21.140;2022-12-07T16:21:23;22.90;;;11.70;;
64459;SDS011;50828;53.756;21.140;2022-12-07T16:26:31;25.20;;;11.40;;
64459;SDS011;50828;53.756;21.140;2022-12-07T16:31:40;22.30;;;11.50;;
64459;SDS011;50828;53.756;21.140;2022-12-07T16:36:49;18.50;;;9.90;;
64459;SDS011;50828;53.756;21.140;2022-12-07T16:42:07;21.70;;;10.60;;
64459;SDS011;50828;53.756;21.140;2022-12-07T16:47:15;21.90;;;10.90;;
64459;SDS011;50828;53.756;21.140;2022-12-07T16:52:24;21.40;;;11.40;;
64459;SDS011;50828;53.756;21.140;2022-12-07T16:57:32;19.80;;;10.50;;
64459;SDS011;50828;53.756;21.140;2022-12-07T17:02:40;22.10;;;11.30;;
64459;SDS011;50828;53.756;21.140;2022-12-07T17:07:48;24.20;;;11.50;;
64459;SDS011;50828;53.756;21.140;2022-12-07T17:12:56;21.40;;;10.50;;
64459;SDS011;50828;53.756;21.140;2022-12-07T17:18:04;25.20;;;11.70;;
64459;SDS011;50828;53.756;21.140;2022-12-07T17:23:12;26.50;;;12.10;;
64459;SDS011;50828;53.756;21.140;2022-12-07T17:28:20;25.60;;;11.90;;
64459;SDS011;50828;53.756;21.140;2022-12-07T17:33:29;21.40;;;11.10;;
64459;SDS011;50828;53.756;21.140;2022-12-07T17:38:38;22.80;;;11.50;;
64459;SDS011;50828;53.756;21.140;2022-12-07T17:43:47;25.00;;;12.00;;
64459;SDS011;50828;53.756;21.140;2022-12-07T17:48:55;24.60;;;11.70;;
64459;SDS011;50828;53.756;21.140;2022-12-07T17:54:03;23.50;;;11.90;;
64459;SDS011;50828;53.756;21.140;2022-12-07T17:59:12;24.30;;;11.30;;
64459;SDS011;50828;53.756;21.140;2022-12-07T18:04:20;27.30;;;12.40;;
64459;SDS011;50828;53.756;21.140;2022-12-07T18:09:28;23.80;;;12.00;;
64459;SDS011;50828;53.756;21.140;2022-12-07T18:14:37;23.60;;;12.00;;
64459;SDS011;50828;53.756;21.140;2022-12-07T18:19:46;22.40;;;11.40;;
64459;SDS011;50828;53.756;21.140;2022-12-07T18:24:54;24.50;;;11.40;;
64459;SDS011;50828;53.756;21.140;2022-12-07T18:30:03;21.20;;;10.60;;
64459;SDS011;50828;53.756;21.140;2022-12-07T18:35:12;19.20;;;9.80;;
64459;SDS011;50828;53.756;21.140;2022-12-07T18:40:20;22.00;;;10.80;;
64459;SDS011;50828;53.756;21.140;2022-12-07T18:45:29;22.10;;;10.70;;
64459;SDS011;50828;53.756;21.140;2022-12-07T18:50:39;21.60;;;11.20;;
64459;SDS011;50828;53.756;21.140;2022-12-07T18:55:48;22.10;;;10.50;;
64459;SDS011;50828;53.756;21.140;2022-12-07T19:00:57;19.40;;;9.90;;
64459;SDS011;50828;53.756;21.140;2022-12-07T19:06:06;18.30;;;9.60;;
64459;SDS011;50828;53.756;21.140;2022-12-07T19:11:18;15.40;;;9.00;;
64459;SDS011;50828;53.756;21.140;2022-12-07T19:16:44;17.00;;;9.80;;
64459;SDS011;50828;53.756;21.140;2022-12-07T19:21:54;18.10;;;8.70;;
64459;SDS011;50828;53.756;21.140;2022-12-07T19:27:04;14.20;;;8.10;;
64459;SDS011;50828;53.756;21.140;2022-12-07T19:37:45;14.40;;;10.00;;
64459;SDS011;50828;53.756;21.140;2022-12-07T19:42:53;17.30;;;8.40;;
64459;SDS011;50828;53.756;21.140;2022-12-07T19:48:01;14.10;;;8.20;;
64459;SDS011;50828;53.756;21.140;2022-12-07T19:53:09;15.80;;;8.40;;
64459;SDS011;50828;53.756;21.140;2022-12-07T19:58:17;16.60;;;8.30;;
64459;SDS011;50828;53.756;21.140;2022-12-07T20:03:26;15.10;;;7.70;;
64459;SDS011;50828;53.756;21.140;2022-12-07T20:08:34;13.20;;;7.50;;
64459;SDS011;50828;53.756;21.140;2022-12-07T20:13:42;14.80;;;7.40;;
64459;SDS011;50828;53.756;21.140;2022-12-07T20:18:50;13.50;;;7.10;;
64459;SDS011;50828;53.756;21.140;2022-12-07T20:24:01;12.70;;;6.80;;
64459;SDS011;50828;53.756;21.140;2022-12-07T20:29:11;14.50;;;7.30;;
64459;SDS011;50828;53.756;21.140;2022-12-07T20:34:21;18.50;;;8.60;;
64459;SDS011;50828;53.756;21.140;2022-12-07T20:39:30;16.60;;;8.60;;
64459;SDS011;50828;53.756;21.140;2022-12-07T20:44:38;17.80;;;8.80;;
64459;SDS011;50828;53.756;21.140;2022-12-07T20:49:46;17.70;;;8.40;;
64459;SDS011;50828;53.756;21.140;2022-12-07T20:54:56;15.90;;;8.30;;
64459;SDS011;50828;53.756;21.140;2022-12-07T21:00:05;17.40;;;8.20;;
64459;SDS011;50828;53.756;21.140;2022-12-07T21:05:15;13.40;;;7.10;;
64459;SDS011;50828;53.756;21.140;2022-12-07T21:10:23;18.50;;;8.30;;
64459;SDS011;50828;53.756;21.140;2022-12-07T21:15:32;14.50;;;7.70;;
64459;SDS011;50828;53.756;21.140;2022-12-07T21:20:42;15.30;;;8.00;;
64459;SDS011;50828;53.756;21.140;2022-12-07T21:25:50;15.40;;;8.20;;
64459;SDS011;50828;53.756;21.140;2022-12-07T21:30:59;17.00;;;8.30;;
64459;SDS011;50828;53.756;21.140;2022-12-07T21:36:18;14.30;;;7.50;;
64459;SDS011;50828;53.756;21.140;2022-12-07T21:41:28;15.80;;;8.20;;
64459;SDS011;50828;53.756;21.140;2022-12-07T21:46:38;18.50;;;8.40;;
64459;SDS011;50828;53.756;21.140;2022-12-07T21:51:47;15.10;;;8.30;;
64459;SDS011;50828;53.756;21.140;2022-12-07T21:56:55;16.70;;;7.90;;
64459;SDS011;50828;53.756;21.140;2022-12-07T22:02:03;17.60;;;8.10;;
64459;SDS011;50828;53.756;21.140;2022-12-07T22:07:11;17.10;;;7.90;;
64459;SDS011;50828;53.756;21.140;2022-12-07T22:12:19;15.10;;;7.50;;
64459;SDS011;50828;53.756;21.140;2022-12-07T22:17:27;24.70;;;9.20;;
64459;SDS011;50828;53.756;21.140;2022-12-07T22:22:36;16.10;;;7.40;;
64459;SDS011;50828;53.756;21.140;2022-12-07T22:27:44;18.20;;;7.90;;
64459;SDS011;50828;53.756;21.140;2022-12-07T22:32:52;18.90;;;8.70;;
64459;SDS011;50828;53.756;21.140;2022-12-07T22:38:00;18.50;;;8.80;;
64459;SDS011;50828;53.756;21.140;2022-12-07T22:43:14;21.80;;;8.60;;
64459;SDS011;50828;53.756;21.140;2022-12-07T22:48:23;20.00;;;8.70;;
64459;SDS011;50828;53.756;21.140;2022-12-07T22:53:32;21.20;;;9.00;;
64459;SDS011;50828;53.756;21.140;2022-12-07T22:58:40;14.30;;;7.50;;
64459;SDS011;50828;53.756;21.140;2022-12-07T23:03:48;16.50;;;7.40;;
64459;SDS011;50828;53.756;21.140;2022-12-07T23:08:58;15.30;;;7.10;;
64459;SDS011;50828;53.756;21.140;2022-12-07T23:14:11;17.90;;;6.50;;
64459;SDS011;50828;53.756;21.140;2022-12-07T23:19:21;15.90;;;7.20;;
64459;SDS011;50828;53.756;21.140;2022-12-07T23:24:30;14.60;;;6.30;;
64459;SDS011;50828;53.756;21.140;2022-12-07T23:29:39;12.30;;;6.20;;
64459;SDS011;50828;53.756;21.140;2022-12-07T23:34:47;11.90;;;6.20;;
64459;SDS011;50828;53.756;21.140;2022-12-07T23:39:55;13.00;;;5.80;;
64459;SDS011;50828;53.756;21.140;2022-12-07T23:45:03;10.60;;;5.90;;
64459;SDS011;50828;53.756;21.140;2022-12-07T23:50:12;10.30;;;6.00;;
64459;SDS011;50828;53.756;21.140;2022-12-07T23:55:20;12.70;;;7.10;;
